This is the latest recevied weather packets stored in our database for station/object K7RAP. If no packets are shown the sender has not sent any weather packets the latest 1 day(s).
| Time | Temp. | Humidity | Pressure | Rain* | Wind** | Luminosity | Snow |
|---|---|---|---|---|---|---|---|
| 1778115004 | 16.11° C | 70% | 1020 hPa | - | - | - | - |
| 1778113204 | 15.56° C | 72% | 1020 hPa | - | - | - | - |
| 1778112604 | 15.56° C | 71% | 1020 hPa | - | - | - | - |
| 1778106604 | 16.11° C | 72% | 1020.3 hPa | - | - | - | - |
| 1778105404 | 16.11° C | 72% | 1020.3 hPa | - | - | - | - |
| 1778097004 | 15° C | 73% | 1020.3 hPa | - | - | - | - |
| 1778096404 | 15.56° C | 74% | 1020 hPa | - | - | - | - |
| 1778073604 | 12.22° C | 84% | 1018.3 hPa | - | - | - | - |
| 1778073004 | 12.22° C | 83% | 1018.6 hPa | - | - | - | - |
| 1778072406 | 12.22° C | 84% | 1018.3 hPa | - | - | - | - |
| 1778070004 | 12.22° C | 84% | 1017.9 hPa | - | - | - | - |
| 1778069404 | 12.22° C | 84% | 1017.9 hPa | - | - | - | - |
| 1778064005 | 12.78° C | 84% | 1017.6 hPa | - | - | - | - |
| 1778060404 | 12.78° C | 84% | 1016.9 hPa | - | - | - | - |
| 1778056804 | 12.78° C | 84% | 1016.9 hPa | - | - | - | - |
| 1778053204 | 13.33° C | 84% | 1016.3 hPa | - | - | - | - |
| 1778052604 | 12.78° C | 84% | 1016.3 hPa | - | - | - | - |
| 1778052004 | 12.78° C | 84% | 1016.3 hPa | - | - | - | - |
| 1778050805 | 12.78° C | 84% | 1015.9 hPa | - | - | - | - |
| 1778047804 | 12.78° C | 84% | 1015.9 hPa | - | - | - | - |
| 1778046603 | 12.78° C | 84% | 1015.9 hPa | - | - | - | - |
| 1778043605 | 12.78° C | 84% | 1015.6 hPa | - | - | - | - |
| 1778040604 | 13.33° C | 83% | 1014.9 hPa | - | - | - | - |
| 1778039404 | 13.89° C | 81% | 1014.9 hPa | - | - | - | - |
| 1778038204 | 14.44° C | 78% | 1014.6 hPa | - | - | - | - |
* Rain since midnight (hover to see other rain measurements)
** Current wind speed in m/s (hover to see current wind gust speed)